PCM8679 KOAK-KMRY
Flight info
| Callsign | PCM8679 |
|---|---|
| Flight time | 0h 52m |
| Altitude | 7000 |
| Route | OAK V301 KARNN/N0143F060 V111 SNS |
| Aircraft | C208/L-SDF/C |
Departure
| Time | 2026-04-22 22:43 |
|---|---|
| Airport | San Francisco Bay Oakland International Airport (KOAK) |
Arrival
| Time | 2026-04-22 23:36 |
|---|---|
| Airport | Monterey Regional Airport (KMRY) |
| Time | Latitude | Longitude | Altitude | Speed | Heading |
|---|---|---|---|---|---|
| 2026-04-22 22:11 | 37.72049 | -122.21749 | 8 ft | 0 kts | 92° |
| 2026-04-22 22:33 | 37.72053 | -122.21737 | 8 ft | 4 kts | 65° |
| 2026-04-22 22:34 | 37.72079 | -122.21693 | 8 ft | 6 kts | 50° |
| 2026-04-22 22:34 | 37.72056 | -122.21637 | 8 ft | 9 kts | 129° |
| 2026-04-22 22:34 | 37.72005 | -122.21560 | 8 ft | 13 kts | 131° |
| 2026-04-22 22:34 | 37.71967 | -122.21457 | 8 ft | 14 kts | 68° |
| 2026-04-22 22:35 | 37.72001 | -122.21334 | 8 ft | 15 kts | 104° |
| 2026-04-22 22:35 | 37.72005 | -122.21209 | 8 ft | 17 kts | 69° |
| 2026-04-22 22:35 | 37.72053 | -122.21056 | 13 ft | 18 kts | 69° |
| 2026-04-22 22:35 | 37.72099 | -122.20909 | 13 ft | 20 kts | 68° |
| 2026-04-22 22:36 | 37.72131 | -122.20806 | 7 ft | 12 kts | 68° |
| 2026-04-22 22:36 | 37.72143 | -122.20768 | 7 ft | 7 kts | 69° |
| 2026-04-22 22:36 | 37.72171 | -122.20682 | 7 ft | 14 kts | 64° |
| 2026-04-22 22:36 | 37.72267 | -122.20594 | 6 ft | 20 kts | 22° |
| 2026-04-22 22:37 | 37.72413 | -122.20520 | 7 ft | 23 kts | 21° |
| 2026-04-22 22:37 | 37.72528 | -122.20462 | 8 ft | 14 kts | 22° |
| 2026-04-22 22:37 | 37.72589 | -122.20485 | 8 ft | 11 kts | 292° |
| 2026-04-22 22:37 | 37.72629 | -122.20607 | 8 ft | 18 kts | 292° |
| 2026-04-22 22:38 | 37.72684 | -122.20777 | 8 ft | 23 kts | 292° |
| 2026-04-22 22:38 | 37.72744 | -122.20963 | 8 ft | 17 kts | 293° |
| 2026-04-22 22:38 | 37.72785 | -122.21092 | 8 ft | 18 kts | 292° |
| 2026-04-22 22:38 | 37.72838 | -122.21253 | 8 ft | 20 kts | 292° |
| 2026-04-22 22:39 | 37.72884 | -122.21396 | 7 ft | 16 kts | 292° |
| 2026-04-22 22:39 | 37.72933 | -122.21549 | 7 ft | 22 kts | 292° |
| 2026-04-22 22:39 | 37.72983 | -122.21702 | 7 ft | 16 kts | 293° |
| 2026-04-22 22:39 | 37.73013 | -122.21792 | 7 ft | 2 kts | 291° |
| 2026-04-22 22:40 | 37.73029 | -122.21840 | 7 ft | 10 kts | 292° |
| 2026-04-22 22:40 | 37.73065 | -122.21954 | 7 ft | 18 kts | 292° |
| 2026-04-22 22:40 | 37.73112 | -122.22098 | 7 ft | 16 kts | 293° |
| 2026-04-22 22:40 | 37.73085 | -122.22181 | 7 ft | 13 kts | 200° |
| 2026-04-22 22:41 | 37.73033 | -122.22178 | 6 ft | 6 kts | 109° |
| 2026-04-22 22:41 | 37.73032 | -122.22174 | 6 ft | 0 kts | 112° |
| 2026-04-22 22:42 | 37.73032 | -122.22173 | 6 ft | 0 kts | 112° |
| 2026-04-22 22:42 | 37.72992 | -122.22048 | 6 ft | 38 kts | 112° |
| 2026-04-22 22:42 | 37.72838 | -122.21573 | 6 ft | 76 kts | 112° |
| 2026-04-22 22:42 | 37.72610 | -122.20860 | 70 ft | 93 kts | 115° |
| 2026-04-22 22:43 | 37.72358 | -122.20106 | 258 ft | 93 kts | 116° |
| 2026-04-22 22:43 | 37.72091 | -122.19344 | 375 ft | 99 kts | 112° |
| 2026-04-22 22:43 | 37.71813 | -122.18481 | 479 ft | 112 kts | 115° |
| 2026-04-22 22:43 | 37.71448 | -122.17659 | 793 ft | 104 kts | 124° |
| 2026-04-22 22:44 | 37.71095 | -122.16872 | 1065 ft | 105 kts | 118° |
| 2026-04-22 22:44 | 37.70807 | -122.15999 | 1258 ft | 112 kts | 112° |
| 2026-04-22 22:44 | 37.70544 | -122.15077 | 1457 ft | 112 kts | 112° |
| 2026-04-22 22:44 | 37.70274 | -122.14139 | 1661 ft | 113 kts | 114° |
| 2026-04-22 22:45 | 37.70024 | -122.13213 | 1892 ft | 110 kts | 112° |
| 2026-04-22 22:45 | 37.69795 | -122.12286 | 2106 ft | 109 kts | 111° |
| 2026-04-22 22:45 | 37.69514 | -122.11384 | 2284 ft | 110 kts | 117° |
| 2026-04-22 22:45 | 37.69217 | -122.10499 | 2518 ft | 108 kts | 113° |
| 2026-04-22 22:46 | 37.68942 | -122.09600 | 2698 ft | 113 kts | 112° |
| 2026-04-22 22:46 | 37.68674 | -122.08651 | 2901 ft | 114 kts | 112° |
| 2026-04-22 22:46 | 37.68392 | -122.07729 | 3094 ft | 115 kts | 116° |
| 2026-04-22 22:46 | 37.68103 | -122.06767 | 3261 ft | 120 kts | 114° |
| 2026-04-22 22:47 | 37.67824 | -122.05755 | 3472 ft | 123 kts | 114° |
| 2026-04-22 22:47 | 37.67558 | -122.04716 | 3696 ft | 123 kts | 112° |
| 2026-04-22 22:47 | 37.67301 | -122.03730 | 3983 ft | 117 kts | 116° |
| 2026-04-22 22:47 | 37.66973 | -122.02777 | 4133 ft | 122 kts | 119° |
| 2026-04-22 22:48 | 37.66605 | -122.01835 | 4383 ft | 116 kts | 122° |
| 2026-04-22 22:48 | 37.66240 | -122.00974 | 4683 ft | 107 kts | 114° |
| 2026-04-22 22:48 | 37.66006 | -122.00089 | 4874 ft | 108 kts | 111° |
| 2026-04-22 22:48 | 37.65810 | -121.99139 | 4986 ft | 114 kts | 108° |
| 2026-04-22 22:49 | 37.65545 | -121.98204 | 5170 ft | 114 kts | 113° |
| 2026-04-22 22:49 | 37.65243 | -121.97278 | 5376 ft | 114 kts | 116° |
| 2026-04-22 22:49 | 37.64954 | -121.96353 | 5616 ft | 111 kts | 113° |
| 2026-04-22 22:49 | 37.64694 | -121.95468 | 5823 ft | 111 kts | 114° |
| 2026-04-22 22:50 | 37.64372 | -121.94558 | 6013 ft | 113 kts | 113° |
| 2026-04-22 22:50 | 37.64134 | -121.93655 | 6277 ft | 107 kts | 108° |
| 2026-04-22 22:50 | 37.63926 | -121.92702 | 6374 ft | 118 kts | 103° |
| 2026-04-22 22:50 | 37.63706 | -121.91684 | 6534 ft | 120 kts | 107° |
| 2026-04-22 22:51 | 37.63470 | -121.90694 | 6722 ft | 117 kts | 112° |
| 2026-04-22 22:51 | 37.63140 | -121.89759 | 6840 ft | 114 kts | 117° |
| 2026-04-22 22:51 | 37.62834 | -121.88825 | 6953 ft | 117 kts | 109° |
| 2026-04-22 22:51 | 37.62547 | -121.87812 | 7001 ft | 128 kts | 112° |
| 2026-04-22 22:52 | 37.62202 | -121.86730 | 7045 ft | 138 kts | 112° |
| 2026-04-22 22:52 | 37.61858 | -121.85555 | 7061 ft | 148 kts | 112° |
| 2026-04-22 22:52 | 37.61491 | -121.84297 | 7051 ft | 157 kts | 111° |
| 2026-04-22 22:52 | 37.61089 | -121.82990 | 7017 ft | 162 kts | 113° |
| 2026-04-22 22:53 | 37.60637 | -121.81651 | 6948 ft | 167 kts | 119° |
| 2026-04-22 22:53 | 37.59967 | -121.80499 | 6916 ft | 166 kts | 138° |
| 2026-04-22 22:53 | 37.59202 | -121.79477 | 7080 ft | 157 kts | 130° |
| 2026-04-22 22:53 | 37.58544 | -121.78361 | 7049 ft | 164 kts | 134° |
| 2026-04-22 22:54 | 37.57686 | -121.77377 | 7016 ft | 167 kts | 143° |
| 2026-04-22 22:54 | 37.56808 | -121.76378 | 7065 ft | 169 kts | 141° |
| 2026-04-22 22:54 | 37.55912 | -121.75325 | 6940 ft | 179 kts | 141° |
| 2026-04-22 22:54 | 37.54948 | -121.74348 | 7024 ft | 175 kts | 148° |
| 2026-04-22 22:55 | 37.53994 | -121.73390 | 7010 ft | 179 kts | 143° |
| 2026-04-22 22:55 | 37.53073 | -121.72298 | 6928 ft | 182 kts | 136° |
| 2026-04-22 22:55 | 37.51326 | -121.70029 | 6891 ft | 176 kts | 140° |
| 2026-04-22 22:56 | 37.50448 | -121.68982 | 6943 ft | 171 kts | 142° |
| 2026-04-22 22:56 | 37.49544 | -121.68015 | 6870 ft | 175 kts | 146° |
| 2026-04-22 22:56 | 37.48608 | -121.67087 | 6954 ft | 166 kts | 148° |
| 2026-04-22 22:56 | 37.47710 | -121.66198 | 6995 ft | 166 kts | 144° |
| 2026-04-22 22:57 | 37.46857 | -121.65225 | 7034 ft | 166 kts | 140° |
| 2026-04-22 22:57 | 37.46008 | -121.64219 | 7001 ft | 170 kts | 141° |
| 2026-04-22 22:57 | 37.45143 | -121.63168 | 6899 ft | 175 kts | 137° |
| 2026-04-22 22:57 | 37.44317 | -121.62071 | 6944 ft | 169 kts | 136° |
| 2026-04-22 22:58 | 37.43495 | -121.61014 | 6913 ft | 170 kts | 140° |
| 2026-04-22 22:58 | 37.42630 | -121.60025 | 6971 ft | 166 kts | 140° |
| 2026-04-22 22:58 | 37.41777 | -121.58994 | 6899 ft | 174 kts | 140° |
| 2026-04-22 22:58 | 37.40910 | -121.57976 | 6922 ft | 172 kts | 137° |
| 2026-04-22 22:59 | 37.40072 | -121.56907 | 6929 ft | 171 kts | 136° |
| 2026-04-22 22:59 | 37.39214 | -121.55844 | 6923 ft | 174 kts | 137° |
| 2026-04-22 22:59 | 37.38340 | -121.54806 | 6966 ft | 170 kts | 140° |
| 2026-04-22 22:59 | 37.37464 | -121.53809 | 6985 ft | 170 kts | 139° |
| 2026-04-22 23:00 | 37.36594 | -121.52806 | 6994 ft | 169 kts | 139° |
| 2026-04-22 23:00 | 37.35722 | -121.51792 | 7013 ft | 171 kts | 139° |
| 2026-04-22 23:00 | 37.34855 | -121.50751 | 7007 ft | 174 kts | 140° |
| 2026-04-22 23:00 | 37.33970 | -121.49718 | 7049 ft | 173 kts | 140° |
| 2026-04-22 23:01 | 37.33073 | -121.48690 | 7033 ft | 176 kts | 140° |
| 2026-04-22 23:01 | 37.32158 | -121.47657 | 6990 ft | 178 kts | 141° |
| 2026-04-22 23:01 | 37.31254 | -121.46658 | 7005 ft | 176 kts | 141° |
| 2026-04-22 23:01 | 37.30321 | -121.45637 | 6932 ft | 181 kts | 143° |
| 2026-04-22 23:02 | 37.29387 | -121.44558 | 6951 ft | 180 kts | 141° |
| 2026-04-22 23:02 | 37.28490 | -121.43472 | 6980 ft | 177 kts | 138° |
| 2026-04-22 23:02 | 37.27627 | -121.42392 | 7051 ft | 175 kts | 137° |
| 2026-04-22 23:02 | 37.26738 | -121.41342 | 7015 ft | 176 kts | 140° |
| 2026-04-22 23:03 | 37.25860 | -121.40266 | 7000 ft | 177 kts | 139° |
| 2026-04-22 23:03 | 37.24990 | -121.39166 | 7038 ft | 178 kts | 139° |
| 2026-04-22 23:03 | 37.24106 | -121.38065 | 6988 ft | 181 kts | 140° |
| 2026-04-22 23:03 | 37.23197 | -121.36973 | 7020 ft | 179 kts | 140° |
| 2026-04-22 23:04 | 37.22266 | -121.36008 | 7074 ft | 174 kts | 144° |
| 2026-04-22 23:04 | 37.21302 | -121.35053 | 7000 ft | 181 kts | 146° |
| 2026-04-22 23:04 | 37.20310 | -121.34040 | 6941 ft | 185 kts | 143° |
| 2026-04-22 23:04 | 37.19340 | -121.33005 | 6950 ft | 182 kts | 143° |
| 2026-04-22 23:05 | 37.18377 | -121.31993 | 7003 ft | 179 kts | 143° |
| 2026-04-22 23:05 | 37.17434 | -121.30955 | 6976 ft | 180 kts | 138° |
| 2026-04-22 23:05 | 37.16551 | -121.29864 | 6974 ft | 178 kts | 138° |
| 2026-04-22 23:05 | 37.15533 | -121.29000 | 6904 ft | 177 kts | 161° |
| 2026-04-22 23:06 | 37.14340 | -121.28812 | 6807 ft | 170 kts | 195° |
| 2026-04-22 23:06 | 37.13302 | -121.29339 | 6999 ft | 155 kts | 208° |
| 2026-04-22 23:06 | 37.12303 | -121.29883 | 6966 ft | 160 kts | 208° |
| 2026-04-22 23:06 | 37.11295 | -121.30499 | 6926 ft | 162 kts | 208° |
| 2026-04-22 23:07 | 37.10301 | -121.31114 | 6988 ft | 157 kts | 211° |
| 2026-04-22 23:07 | 37.09329 | -121.31708 | 7010 ft | 157 kts | 207° |
| 2026-04-22 23:07 | 37.08352 | -121.32322 | 6973 ft | 157 kts | 215° |
| 2026-04-22 23:07 | 37.07440 | -121.33067 | 6956 ft | 156 kts | 218° |
| 2026-04-22 23:08 | 37.06541 | -121.33847 | 6960 ft | 158 kts | 213° |
| 2026-04-22 23:08 | 37.05517 | -121.34470 | 6947 ft | 167 kts | 210° |
| 2026-04-22 23:08 | 37.04481 | -121.35124 | 7107 ft | 167 kts | 213° |
| 2026-04-22 23:08 | 37.03422 | -121.35818 | 7006 ft | 175 kts | 212° |
| 2026-04-22 23:09 | 37.02325 | -121.36507 | 6951 ft | 175 kts | 210° |
| 2026-04-22 23:09 | 37.01253 | -121.37213 | 6912 ft | 172 kts | 215° |
| 2026-04-22 23:09 | 37.00254 | -121.37959 | 7007 ft | 165 kts | 214° |
| 2026-04-22 23:09 | 36.99268 | -121.38631 | 6996 ft | 165 kts | 208° |
| 2026-04-22 23:10 | 36.98255 | -121.39310 | 6933 ft | 165 kts | 212° |
| 2026-04-22 23:10 | 36.97219 | -121.39932 | 6904 ft | 164 kts | 210° |
| 2026-04-22 23:10 | 36.96222 | -121.40603 | 6923 ft | 160 kts | 214° |
| 2026-04-22 23:10 | 36.95268 | -121.41311 | 6918 ft | 161 kts | 214° |
| 2026-04-22 23:11 | 36.94289 | -121.41978 | 6956 ft | 159 kts | 208° |
| 2026-04-22 23:11 | 36.93282 | -121.42577 | 6930 ft | 161 kts | 211° |
| 2026-04-22 23:11 | 36.92275 | -121.43191 | 6927 ft | 161 kts | 210° |
| 2026-04-22 23:11 | 36.91296 | -121.43847 | 6949 ft | 159 kts | 212° |
| 2026-04-22 23:12 | 36.90304 | -121.44480 | 6903 ft | 163 kts | 213° |
| 2026-04-22 23:12 | 36.89305 | -121.45159 | 6929 ft | 158 kts | 213° |
| 2026-04-22 23:12 | 36.88348 | -121.45785 | 6999 ft | 156 kts | 211° |
| 2026-04-22 23:12 | 36.87358 | -121.46384 | 6933 ft | 161 kts | 210° |
| 2026-04-22 23:13 | 36.86411 | -121.47082 | 6985 ft | 155 kts | 214° |
| 2026-04-22 23:13 | 36.85479 | -121.47783 | 6943 ft | 159 kts | 213° |
| 2026-04-22 23:13 | 36.84557 | -121.48488 | 7105 ft | 148 kts | 211° |
| 2026-04-22 23:13 | 36.83612 | -121.49060 | 7068 ft | 156 kts | 210° |
| 2026-04-22 23:14 | 36.82611 | -121.49630 | 7041 ft | 159 kts | 209° |
| 2026-04-22 23:14 | 36.81602 | -121.50219 | 6957 ft | 164 kts | 211° |
| 2026-04-22 23:14 | 36.80592 | -121.50898 | 6914 ft | 165 kts | 214° |
| 2026-04-22 23:14 | 36.79593 | -121.51585 | 6931 ft | 162 kts | 208° |
| 2026-04-22 23:15 | 36.78605 | -121.52230 | 6986 ft | 158 kts | 216° |
| 2026-04-22 23:15 | 36.77687 | -121.52948 | 7010 ft | 158 kts | 215° |
| 2026-04-22 23:15 | 36.76710 | -121.53621 | 6955 ft | 163 kts | 211° |
| 2026-04-22 23:15 | 36.75716 | -121.54344 | 6902 ft | 164 kts | 214° |
| 2026-04-22 23:16 | 36.74745 | -121.54980 | 7074 ft | 155 kts | 210° |
| 2026-04-22 23:16 | 36.73773 | -121.55591 | 7038 ft | 158 kts | 212° |
| 2026-04-22 23:16 | 36.72805 | -121.56253 | 7008 ft | 158 kts | 213° |
| 2026-04-22 23:16 | 36.71839 | -121.56919 | 6957 ft | 162 kts | 212° |
| 2026-04-22 23:17 | 36.70824 | -121.57563 | 6877 ft | 165 kts | 206° |
| 2026-04-22 23:17 | 36.69783 | -121.58106 | 6969 ft | 159 kts | 204° |
| 2026-04-22 23:17 | 36.68767 | -121.58621 | 6976 ft | 156 kts | 208° |
| 2026-04-22 23:17 | 36.67830 | -121.59270 | 6990 ft | 153 kts | 216° |
| 2026-04-22 23:18 | 36.66847 | -121.59830 | 6928 ft | 159 kts | 191° |
| 2026-04-22 23:18 | 36.65765 | -121.59743 | 7037 ft | 156 kts | 170° |
| 2026-04-22 23:18 | 36.64695 | -121.59438 | 6985 ft | 162 kts | 171° |
| 2026-04-22 23:18 | 36.63605 | -121.59035 | 6935 ft | 167 kts | 162° |
| 2026-04-22 23:19 | 36.62575 | -121.58413 | 6981 ft | 163 kts | 155° |
| 2026-04-22 23:19 | 36.61567 | -121.57730 | 6900 ft | 169 kts | 154° |
| 2026-04-22 23:19 | 36.60510 | -121.57022 | 6713 ft | 178 kts | 156° |
| 2026-04-22 23:19 | 36.59371 | -121.56418 | 6547 ft | 178 kts | 163° |
| 2026-04-22 23:20 | 36.58213 | -121.55922 | 6454 ft | 172 kts | 165° |
| 2026-04-22 23:20 | 36.57102 | -121.55468 | 6424 ft | 166 kts | 163° |
| 2026-04-22 23:20 | 36.56011 | -121.55004 | 6354 ft | 164 kts | 162° |
| 2026-04-22 23:20 | 36.54972 | -121.54451 | 6351 ft | 162 kts | 157° |
| 2026-04-22 23:21 | 36.53983 | -121.53784 | 6194 ft | 168 kts | 154° |
| 2026-04-22 23:21 | 36.53296 | -121.53295 | 6126 ft | 167 kts | 154° |
| 2026-04-22 23:21 | 36.51929 | -121.52563 | 6160 ft | 157 kts | 163° |
| 2026-04-22 23:21 | 36.50912 | -121.52107 | 6188 ft | 153 kts | 165° |
| 2026-04-22 23:22 | 36.49900 | -121.51645 | 6159 ft | 158 kts | 161° |
| 2026-04-22 23:22 | 36.48915 | -121.51039 | 6201 ft | 158 kts | 156° |
| 2026-04-22 23:22 | 36.48264 | -121.50633 | 6220 ft | 159 kts | 154° |
| 2026-04-22 23:22 | 36.47367 | -121.49761 | 6162 ft | 167 kts | 131° |
| 2026-04-22 23:23 | 36.46789 | -121.48519 | 6169 ft | 169 kts | 114° |
| 2026-04-22 23:23 | 36.46342 | -121.47141 | 6126 ft | 170 kts | 113° |
| 2026-04-22 23:23 | 36.45911 | -121.45768 | 6105 ft | 171 kts | 111° |
| 2026-04-22 23:23 | 36.45481 | -121.44381 | 6094 ft | 171 kts | 107° |
| 2026-04-22 23:24 | 36.45433 | -121.42970 | 6202 ft | 164 kts | 76° |
| 2026-04-22 23:24 | 36.45993 | -121.41735 | 6086 ft | 168 kts | 43° |
| 2026-04-22 23:24 | 36.46954 | -121.41014 | 6172 ft | 158 kts | 11° |
| 2026-04-22 23:24 | 36.48013 | -121.41107 | 6182 ft | 153 kts | 333° |
| 2026-04-22 23:25 | 36.48688 | -121.42063 | 6073 ft | 155 kts | 285° |
| 2026-04-22 23:25 | 36.48657 | -121.43376 | 6035 ft | 153 kts | 254° |
| 2026-04-22 23:25 | 36.48290 | -121.44589 | 6123 ft | 148 kts | 250° |
| 2026-04-22 23:25 | 36.47956 | -121.45818 | 6096 ft | 149 kts | 256° |
| 2026-04-22 23:26 | 36.47698 | -121.47023 | 6237 ft | 141 kts | 255° |
| 2026-04-22 23:26 | 36.47403 | -121.48197 | 6210 ft | 145 kts | 254° |
| 2026-04-22 23:26 | 36.47169 | -121.49442 | 6132 ft | 149 kts | 265° |
| 2026-04-22 23:26 | 36.47260 | -121.50721 | 6114 ft | 150 kts | 282° |
| 2026-04-22 23:27 | 36.47619 | -121.51906 | 6115 ft | 151 kts | 290° |
| 2026-04-22 23:27 | 36.48039 | -121.53106 | 5902 ft | 153 kts | 294° |
| 2026-04-22 23:27 | 36.48485 | -121.54284 | 5709 ft | 150 kts | 291° |
| 2026-04-22 23:27 | 36.48864 | -121.55475 | 5492 ft | 148 kts | 290° |
| 2026-04-22 23:28 | 36.49277 | -121.56651 | 5214 ft | 148 kts | 294° |
| 2026-04-22 23:28 | 36.49715 | -121.57783 | 4953 ft | 142 kts | 294° |
| 2026-04-22 23:28 | 36.50121 | -121.58880 | 4695 ft | 138 kts | 291° |
| 2026-04-22 23:28 | 36.50470 | -121.59954 | 4558 ft | 128 kts | 289° |
| 2026-04-22 23:29 | 36.50756 | -121.60954 | 4601 ft | 118 kts | 289° |
| 2026-04-22 23:29 | 36.51064 | -121.61888 | 4610 ft | 118 kts | 290° |
| 2026-04-22 23:29 | 36.51404 | -121.62839 | 4544 ft | 123 kts | 290° |
| 2026-04-22 23:29 | 36.51752 | -121.63842 | 4394 ft | 129 kts | 291° |
| 2026-04-22 23:30 | 36.52092 | -121.64888 | 4208 ft | 133 kts | 289° |
| 2026-04-22 23:30 | 36.52426 | -121.65946 | 3996 ft | 128 kts | 291° |
| 2026-04-22 23:30 | 36.52781 | -121.66932 | 3730 ft | 125 kts | 294° |
| 2026-04-22 23:30 | 36.53138 | -121.67916 | 3416 ft | 125 kts | 292° |
| 2026-04-22 23:31 | 36.53465 | -121.68876 | 3219 ft | 111 kts | 291° |
| 2026-04-22 23:31 | 36.53742 | -121.69734 | 3096 ft | 102 kts | 289° |
| 2026-04-22 23:31 | 36.53980 | -121.70597 | 2826 ft | 109 kts | 289° |
| 2026-04-22 23:31 | 36.54272 | -121.71484 | 2544 ft | 113 kts | 295° |
| 2026-04-22 23:32 | 36.54618 | -121.72347 | 2345 ft | 110 kts | 295° |
| 2026-04-22 23:32 | 36.54900 | -121.73195 | 2196 ft | 103 kts | 291° |
| 2026-04-22 23:32 | 36.55142 | -121.74013 | 2032 ft | 98 kts | 291° |
| 2026-04-22 23:32 | 36.55405 | -121.74800 | 1908 ft | 101 kts | 295° |
| 2026-04-22 23:33 | 36.55726 | -121.75576 | 1813 ft | 100 kts | 290° |
| 2026-04-22 23:33 | 36.56006 | -121.76337 | 1683 ft | 95 kts | 290° |
| 2026-04-22 23:33 | 36.56233 | -121.77113 | 1568 ft | 98 kts | 288° |
| 2026-04-22 23:33 | 36.56491 | -121.77922 | 1435 ft | 102 kts | 289° |
| 2026-04-22 23:34 | 36.56763 | -121.78779 | 1261 ft | 109 kts | 295° |
| 2026-04-22 23:34 | 36.57075 | -121.79627 | 1100 ft | 107 kts | 292° |
| 2026-04-22 23:34 | 36.57386 | -121.80475 | 896 ft | 108 kts | 290° |
| 2026-04-22 23:34 | 36.57663 | -121.81313 | 739 ft | 104 kts | 286° |
| 2026-04-22 23:35 | 36.57943 | -121.82136 | 538 ft | 100 kts | 288° |
| 2026-04-22 23:35 | 36.58177 | -121.82910 | 364 ft | 95 kts | 284° |
| 2026-04-22 23:35 | 36.58447 | -121.83670 | 237 ft | 94 kts | 282° |
| 2026-04-22 23:35 | 36.58681 | -121.84377 | 208 ft | 78 kts | 290° |
| 2026-04-22 23:36 | 36.58844 | -121.84856 | 214 ft | 43 kts | 293° |
| 2026-04-22 23:36 | 36.58912 | -121.85042 | 209 ft | 10 kts | 324° |
| 2026-04-22 23:36 | 36.58989 | -121.85068 | 209 ft | 8 kts | 344° |
| 2026-04-22 23:36 | 36.59020 | -121.85078 | 208 ft | 4 kts | 346° |
| 2026-04-22 23:37 | 36.59024 | -121.85079 | 208 ft | 0 kts | 346° |
| 2026-04-22 23:37 | 36.59038 | -121.85084 | 208 ft | 6 kts | 344° |
| 2026-04-22 23:37 | 36.59104 | -121.85105 | 208 ft | 10 kts | 345° |
| 2026-04-22 23:37 | 36.59128 | -121.85081 | 216 ft | 8 kts | 78° |
| 2026-04-22 23:38 | 36.59145 | -121.84992 | 212 ft | 9 kts | 76° |
| 2026-04-22 23:38 | 36.59169 | -121.84933 | 208 ft | 9 kts | 8° |
| 2026-04-22 23:38 | 36.59204 | -121.84956 | 208 ft | 4 kts | 309° |
| 2026-04-22 23:38 | 36.59217 | -121.84981 | 208 ft | 1 kts | 257° |